createdAt,value
2022-07-25T00:02:21.118Z,76.09
2022-07-25T00:04:49.468Z,75.54
2022-07-25T00:07:17.537Z,75.85
2022-07-25T00:09:45.989Z,75.79
2022-07-25T00:12:14.054Z,75.64
2022-07-25T00:14:43.392Z,75.43
2022-07-25T00:17:11.337Z,76.39
2022-07-25T00:19:39.492Z,75.92
2022-07-25T00:22:07.448Z,75.96
2022-07-25T00:24:35.513Z,75.47
2022-07-25T00:27:03.913Z,75.32
2022-07-25T00:29:31.846Z,76.01
2022-07-25T00:32:01.157Z,75.92
2022-07-25T00:34:29.039Z,76.38
2022-07-25T00:36:56.912Z,75.84
2022-07-25T00:39:24.899Z,75.64
2022-07-25T00:41:52.811Z,75.89
2022-07-25T00:44:25.506Z,76.28
2022-07-25T00:46:53.776Z,75.19
2022-07-25T00:49:23.381Z,74.51
2022-07-25T00:51:51.686Z,74.38
2022-07-25T00:54:19.874Z,73.97
2022-07-25T00:56:48.003Z,74.71
2022-07-25T00:59:16.662Z,75.11
2022-07-25T01:01:48.051Z,74.48
2022-07-25T01:04:17.142Z,75.50
2022-07-25T01:06:46.654Z,74.74
2022-07-25T01:09:15.042Z,74.78
2022-07-25T01:11:43.475Z,75.10
2022-07-25T01:14:11.420Z,74.77
2022-07-25T01:16:41.047Z,75.26
2022-07-25T01:19:09.050Z,76.09
2022-07-25T01:21:41.164Z,76.25
2022-07-25T01:24:09.873Z,76.38
2022-07-25T01:26:38.033Z,76.25
2022-07-25T01:29:06.709Z,76.36
2022-07-25T01:31:35.048Z,76.71
2022-07-25T01:34:03.651Z,77.19
2022-07-25T01:36:31.850Z,77.25
2022-07-25T01:39:01.222Z,77.46
2022-07-25T01:41:29.151Z,77.33
2022-07-25T01:43:57.081Z,77.14
2022-07-25T01:46:25.017Z,76.77
2022-07-25T01:48:53.223Z,76.02
2022-07-25T01:51:21.249Z,76.01
2022-07-25T01:53:50.089Z,75.80
2022-07-25T01:56:21.307Z,75.47
2022-07-25T01:58:50.521Z,76.18
2022-07-25T02:01:19.478Z,75.72
2022-07-25T02:03:49.963Z,76.17
2022-07-25T02:06:19.432Z,76.48
2022-07-25T02:08:47.356Z,76.75
2022-07-25T02:11:16.028Z,76.91
2022-07-25T02:13:45.696Z,77.27
2022-07-25T02:16:13.742Z,77.61
2022-07-25T02:18:41.645Z,78.28
2022-07-25T02:21:13.899Z,77.66
2022-07-25T02:23:42.768Z,78.22
2022-07-25T02:26:10.872Z,78.44
2022-07-25T02:28:38.750Z,78.67
2022-07-25T02:31:08.829Z,78.67
2022-07-25T02:33:37.184Z,78.49
2022-07-25T02:36:05.657Z,79.09
2022-07-25T02:38:33.541Z,79.50
2022-07-25T02:41:01.446Z,79.75
2022-07-25T02:43:29.336Z,79.34
2022-07-25T02:45:57.228Z,79.59
2022-07-25T02:48:26.728Z,79.59
2022-07-25T02:50:54.768Z,79.77
2022-07-25T02:53:46.718Z,79.27
2022-07-25T02:56:10.784Z,80.10
2022-07-25T02:58:39.372Z,79.90
2022-07-25T03:01:08.032Z,79.93
2022-07-25T03:03:37.470Z,79.77
2022-07-25T03:06:05.881Z,79.70
2022-07-25T03:08:33.804Z,79.43
2022-07-25T03:11:01.685Z,79.50
2022-07-25T03:13:29.597Z,78.91
2022-07-25T03:15:57.692Z,78.92
2022-07-25T03:18:25.556Z,78.84
2022-07-25T03:20:54.946Z,78.49
2022-07-25T03:23:25.062Z,79.05
2022-07-25T03:25:53.003Z,78.42
2022-07-25T03:28:20.994Z,78.67
2022-07-25T03:30:48.866Z,78.42
2022-07-25T03:33:16.988Z,78.14
2022-07-25T03:35:45.759Z,78.69
2022-07-25T03:38:15.092Z,78.16
2022-07-25T03:40:42.991Z,77.90
2022-07-25T03:43:10.945Z,78.55
2022-07-25T03:45:39.007Z,78.42
2022-07-25T03:48:07.420Z,78.45
2022-07-25T03:50:35.329Z,78.82
2022-07-25T03:53:03.580Z,78.53
2022-07-25T03:55:32.841Z,78.84
2022-07-25T03:58:00.711Z,78.60
2022-07-25T04:00:28.769Z,78.71
2022-07-25T04:02:56.633Z,78.83
2022-07-25T04:05:24.609Z,78.36
2022-07-25T04:07:52.557Z,78.69
2022-07-25T04:10:20.435Z,78.24
2022-07-25T04:12:49.884Z,78.15
2022-07-25T04:15:17.826Z,77.81
2022-07-25T04:17:45.739Z,78.06
2022-07-25T04:20:14.420Z,77.91
2022-07-25T04:22:46.572Z,77.12
2022-07-25T04:25:15.173Z,76.47
2022-07-25T04:27:43.376Z,76.71
2022-07-25T04:30:24.050Z,75.44
2022-07-25T04:32:53.338Z,74.91
2022-07-25T04:35:21.460Z,75.00
2022-07-25T04:37:49.757Z,74.74
2022-07-25T04:40:17.704Z,73.66
2022-07-25T04:42:45.650Z,73.10
2022-07-25T04:45:17.837Z,72.82
2022-07-25T04:47:46.060Z,72.54
2022-07-25T04:50:14.404Z,71.99
2022-07-25T04:52:42.289Z,71.06
2022-07-25T04:55:11.719Z,71.29
2022-07-25T04:57:39.936Z,71.34
2022-07-25T05:00:10.229Z,70.32
2022-07-25T05:02:39.533Z,69.77
2022-07-25T05:05:21.111Z,67.93
2022-07-25T05:07:50.183Z,66.47
2022-07-25T05:10:18.365Z,65.23
2022-07-25T05:12:46.293Z,65.18
2022-07-25T05:15:14.247Z,64.81
2022-07-25T05:17:44.097Z,64.27
2022-07-25T05:20:12.932Z,62.72
2022-07-25T05:22:40.972Z,62.36
2022-07-25T05:25:10.590Z,61.59
2022-07-25T05:27:38.613Z,60.43
2022-07-25T05:30:08.421Z,59.63
2022-07-25T05:32:36.662Z,57.38
2022-07-25T05:35:07.944Z,56.47
2022-07-25T05:37:36.512Z,55.76
2022-07-25T05:40:05.579Z,55.36
2022-07-25T05:42:33.423Z,55.18
2022-07-25T05:45:01.506Z,54.79
2022-07-25T05:47:29.453Z,54.47
2022-07-25T05:49:57.329Z,53.01
2022-07-25T05:52:26.586Z,53.62
2022-07-25T05:54:54.503Z,54.40
2022-07-25T05:57:22.515Z,53.79
2022-07-25T05:59:50.397Z,53.38
2022-07-25T06:02:18.435Z,51.92
2022-07-25T06:04:46.760Z,51.93
2022-07-25T06:07:16.921Z,52.09
2022-07-25T06:09:46.664Z,52.33
2022-07-25T06:12:14.962Z,51.32
2022-07-25T06:14:43.591Z,50.06
2022-07-25T06:17:11.551Z,51.87
2022-07-25T06:19:39.436Z,51.31
2022-07-25T06:22:08.127Z,49.45
2022-07-25T06:24:36.058Z,50.46
2022-07-25T06:27:05.509Z,48.93
2022-07-25T06:29:33.615Z,48.70
2022-07-25T06:32:01.519Z,48.34
2022-07-25T06:34:29.621Z,48.32
2022-07-25T06:36:58.216Z,47.99
2022-07-25T06:39:28.081Z,47.36
2022-07-25T06:41:56.061Z,46.96
2022-07-25T06:44:25.310Z,47.22
2022-07-25T06:46:53.279Z,47.80
2022-07-25T06:49:21.228Z,48.49
2022-07-25T06:51:49.097Z,47.63
2022-07-25T06:54:18.562Z,46.88
2022-07-25T06:56:47.199Z,45.99
2022-07-25T06:59:15.134Z,45.63
2022-07-25T07:01:49.526Z,46.95
2022-07-25T07:04:19.335Z,46.72
2022-07-25T07:06:47.314Z,45.86
2022-07-25T07:09:15.264Z,45.21
2022-07-25T07:11:43.189Z,45.31
2022-07-25T07:14:11.056Z,43.35
2022-07-25T07:16:41.337Z,42.79
2022-07-25T07:19:12.114Z,41.56
2022-07-25T07:21:40.097Z,42.20
2022-07-25T07:24:18.517Z,42.29
2022-07-25T07:26:52.197Z,42.00
2022-07-25T07:29:20.515Z,40.61
2022-07-25T07:31:48.490Z,40.75
2022-07-25T07:34:17.866Z,40.05
2022-07-25T07:36:45.775Z,39.61
2022-07-25T07:39:13.711Z,40.17
2022-07-25T07:41:41.592Z,40.60
2022-07-25T07:44:09.896Z,40.53
2022-07-25T07:46:38.130Z,40.31
2022-07-25T07:49:06.553Z,39.59
2022-07-25T07:51:36.106Z,38.58
2022-07-25T07:54:23.494Z,37.73
2022-07-25T07:56:51.458Z,38.49
2022-07-25T07:59:19.409Z,38.66
2022-07-25T08:01:47.406Z,38.08
2022-07-25T08:04:15.662Z,38.31
2022-07-25T08:06:45.006Z,37.90
2022-07-25T08:09:12.913Z,38.58
2022-07-25T08:11:40.894Z,38.38
2022-07-25T08:14:09.185Z,37.78
2022-07-25T08:16:37.458Z,37.11
2022-07-25T08:19:06.618Z,37.15
2022-07-25T08:21:34.520Z,36.46
2022-07-25T08:24:04.060Z,36.22
2022-07-25T08:26:37.219Z,37.05
2022-07-25T08:29:18.656Z,38.20
2022-07-25T08:31:47.527Z,35.89
2022-07-25T08:34:15.467Z,36.22
2022-07-25T08:36:43.373Z,36.49
2022-07-25T08:39:12.593Z,36.27
2022-07-25T08:41:41.885Z,36.23
2022-07-25T08:44:10.520Z,36.95
2022-07-25T08:46:41.717Z,36.68
2022-07-25T08:49:10.631Z,36.34
2022-07-25T08:51:39.834Z,36.75
2022-07-25T08:54:08.337Z,35.36
2022-07-25T08:56:37.953Z,35.48
2022-07-25T08:59:05.899Z,34.98
2022-07-25T09:01:35.152Z,34.68
2022-07-25T09:04:04.896Z,34.72
2022-07-25T09:06:33.189Z,35.71
2022-07-25T09:09:04.697Z,35.52
2022-07-25T09:11:35.792Z,34.53
2022-07-25T09:14:07.420Z,35.28
2022-07-25T09:16:40.562Z,35.43
2022-07-25T09:19:14.353Z,34.19
2022-07-25T09:21:44.165Z,33.76
2022-07-25T09:24:16.187Z,33.14
2022-07-25T09:26:45.899Z,33.32
2022-07-25T09:29:24.733Z,34.52
2022-07-25T09:31:53.927Z,36.46
2022-07-25T09:34:36.237Z,37.84
2022-07-25T09:37:07.742Z,38.78
2022-07-25T09:39:45.821Z,39.14
2022-07-25T09:42:22.711Z,39.98
2022-07-25T09:45:04.940Z,40.73
2022-07-25T09:47:34.905Z,40.49
2022-07-25T09:50:04.229Z,39.71
2022-07-25T09:52:33.685Z,37.42
2022-07-25T09:55:04.754Z,36.03
2022-07-25T09:57:32.645Z,34.96
2022-07-25T10:00:02.784Z,34.63
2022-07-25T10:02:43.005Z,31.89
2022-07-25T10:05:15.493Z,30.67
2022-07-25T10:07:46.661Z,30.65
2022-07-25T10:10:24.776Z,30.17
2022-07-25T10:13:08.024Z,30.05
2022-07-25T10:15:52.136Z,30.25
2022-07-25T10:18:21.901Z,31.12
2022-07-25T10:20:53.188Z,33.61
2022-07-25T10:23:23.333Z,32.91
2022-07-25T10:26:05.814Z,32.58
2022-07-25T10:28:43.030Z,30.30
2022-07-25T10:31:24.453Z,29.70
2022-07-25T10:33:55.090Z,29.80
2022-07-25T10:36:24.189Z,30.65
2022-07-25T10:38:57.144Z,30.74
2022-07-25T10:41:29.993Z,30.26
2022-07-25T10:44:02.344Z,30.59
2022-07-25T10:46:35.946Z,29.43
2022-07-25T10:49:07.260Z,28.58
2022-07-25T10:51:41.540Z,28.46
2022-07-25T10:54:14.957Z,29.56
2022-07-25T10:56:56.568Z,28.93
2022-07-25T10:59:29.244Z,27.00
2022-07-25T11:01:58.706Z,27.84
2022-07-25T11:04:26.686Z,27.60
2022-07-25T11:06:54.631Z,26.92
2022-07-25T11:09:27.572Z,27.10
2022-07-25T11:11:57.931Z,26.12
2022-07-25T11:14:27.410Z,26.02
2022-07-25T11:16:57.018Z,27.71
2022-07-25T11:19:28.119Z,29.50
2022-07-25T11:21:58.004Z,30.11
2022-07-25T11:24:36.320Z,29.38
2022-07-25T11:27:09.739Z,27.37
2022-07-25T11:29:40.651Z,27.47
2022-07-25T11:32:10.906Z,27.51
2022-07-25T11:34:43.236Z,27.37
2022-07-25T11:37:13.140Z,26.77
2022-07-25T11:39:44.337Z,26.30
2022-07-25T11:42:16.217Z,26.39
2022-07-25T11:44:48.047Z,25.82
2022-07-25T11:47:28.841Z,26.45
2022-07-25T11:50:01.576Z,27.08
2022-07-25T11:52:31.745Z,27.22
2022-07-25T11:55:01.209Z,26.24
2022-07-25T11:57:30.942Z,25.69
2022-07-25T12:00:01.278Z,25.70
2022-07-25T12:02:31.665Z,25.41
2022-07-25T12:05:02.572Z,25.82
2022-07-25T12:07:41.651Z,27.60
2022-07-25T12:10:11.740Z,27.62
2022-07-25T12:12:48.687Z,26.75
2022-07-25T12:15:19.934Z,27.10
2022-07-25T12:17:48.717Z,27.42
2022-07-25T12:20:19.838Z,26.91
2022-07-25T12:22:48.753Z,27.90
2022-07-25T12:25:16.987Z,28.37
2022-07-25T12:27:45.065Z,28.24
2022-07-25T12:30:14.725Z,28.56
2022-07-25T12:32:43.485Z,28.49
2022-07-25T12:35:14.151Z,28.26
2022-07-25T12:37:44.560Z,28.86
2022-07-25T12:40:14.616Z,29.61
2022-07-25T12:42:42.807Z,29.38
2022-07-25T12:45:11.496Z,30.17
2022-07-25T12:47:40.050Z,30.98
2022-07-25T12:50:10.148Z,30.19
2022-07-25T12:52:39.092Z,29.07
2022-07-25T12:55:10.660Z,28.25
2022-07-25T12:57:39.096Z,28.54
2022-07-25T13:00:09.300Z,28.82
2022-07-25T13:02:37.576Z,29.59
2022-07-25T13:05:06.266Z,29.50
2022-07-25T13:07:34.663Z,29.90
2022-07-25T13:10:03.677Z,29.30
2022-07-25T13:12:33.133Z,29.72
2022-07-25T13:15:01.729Z,30.45
2022-07-25T13:17:29.745Z,30.65
2022-07-25T13:19:58.329Z,30.38
2022-07-25T13:22:27.040Z,30.22
2022-07-25T13:24:55.212Z,30.71
2022-07-25T13:27:23.864Z,30.82
2022-07-25T13:29:55.327Z,30.55
2022-07-25T13:32:23.627Z,29.98
2022-07-25T13:34:51.787Z,29.20
2022-07-25T13:37:19.699Z,28.03
2022-07-25T13:39:47.615Z,27.32
2022-07-25T13:42:15.553Z,26.71
2022-07-25T13:44:43.537Z,26.31
2022-07-25T13:47:12.939Z,26.15
2022-07-25T13:49:41.302Z,26.19
2022-07-25T13:52:09.208Z,26.59
2022-07-25T13:54:37.528Z,27.37
2022-07-25T13:57:05.712Z,28.93
2022-07-25T13:59:33.669Z,29.71
2022-07-25T14:02:01.882Z,30.15
2022-07-25T14:04:31.497Z,30.50
2022-07-25T14:07:01.040Z,30.92
2022-07-25T14:09:29.029Z,33.18
2022-07-25T14:11:56.995Z,33.72
2022-07-25T14:14:25.159Z,33.51
2022-07-25T14:16:53.325Z,34.70
2022-07-25T14:19:21.435Z,34.07
2022-07-25T14:21:50.742Z,33.65
2022-07-25T14:24:18.614Z,33.50
2022-07-25T14:26:46.648Z,33.66
2022-07-25T14:29:14.896Z,33.72
2022-07-25T14:31:42.839Z,34.81
2022-07-25T14:34:10.816Z,34.27
2022-07-25T14:36:38.773Z,34.88
2022-07-25T14:39:08.556Z,35.55
2022-07-25T14:41:36.789Z,35.57
2022-07-25T14:44:04.781Z,35.85
2022-07-25T14:46:33.852Z,35.96
2022-07-25T14:49:01.865Z,36.34
2022-07-25T14:51:30.552Z,36.36
2022-07-25T14:53:58.437Z,36.39
2022-07-25T14:56:27.844Z,37.06
2022-07-25T14:58:55.869Z,36.31
2022-07-25T15:01:25.411Z,36.42
2022-07-25T15:03:56.139Z,36.88
2022-07-25T15:06:28.728Z,37.02
2022-07-25T15:08:57.249Z,37.04
2022-07-25T15:11:26.019Z,37.15
2022-07-25T15:13:55.334Z,37.00
2022-07-25T15:16:23.353Z,36.69
2022-07-25T15:19:15.371Z,36.10
2022-07-25T15:21:39.781Z,36.43
2022-07-25T15:24:07.975Z,36.77
2022-07-25T15:26:35.976Z,36.93
2022-07-25T15:29:08.287Z,36.73
2022-07-25T15:31:36.823Z,37.12
2022-07-25T15:34:04.799Z,37.45
2022-07-25T15:36:32.841Z,38.28
2022-07-25T15:39:00.735Z,37.74
2022-07-25T15:41:28.669Z,37.99
2022-07-25T15:43:56.551Z,37.74
2022-07-25T15:46:26.486Z,37.98
2022-07-25T15:48:54.711Z,37.32
2022-07-25T15:51:22.677Z,38.13
2022-07-25T15:53:50.713Z,38.05
2022-07-25T15:56:18.697Z,37.63
2022-07-25T15:58:49.080Z,37.79
2022-07-25T16:01:17.146Z,37.94
2022-07-25T16:03:46.566Z,38.80
2022-07-25T16:06:18.730Z,38.60
2022-07-25T16:08:47.061Z,38.56
2022-07-25T16:11:15.317Z,38.56
2022-07-25T16:13:43.313Z,39.29
2022-07-25T16:16:11.341Z,39.92
2022-07-25T16:18:39.291Z,40.25
2022-07-25T16:21:08.729Z,40.32
2022-07-25T16:23:41.548Z,40.60
2022-07-25T16:26:13.214Z,40.62
2022-07-25T16:28:41.915Z,40.78
2022-07-25T16:31:10.222Z,41.04
2022-07-25T16:33:38.211Z,41.11
2022-07-25T16:36:06.784Z,41.38
2022-07-25T16:38:36.076Z,41.79
2022-07-25T16:41:04.055Z,41.59
2022-07-25T16:43:31.948Z,41.95
2022-07-25T16:45:59.861Z,41.97
2022-07-25T16:48:27.896Z,42.02
2022-07-25T16:50:55.892Z,42.14
2022-07-25T16:53:23.833Z,43.04
2022-07-25T16:55:53.184Z,42.62
2022-07-25T16:58:21.138Z,43.58
2022-07-25T17:00:49.232Z,43.50
2022-07-25T17:03:17.140Z,43.77
2022-07-25T17:05:46.936Z,43.72
2022-07-25T17:08:14.823Z,44.18
2022-07-25T17:10:42.738Z,44.11
2022-07-25T17:13:12.237Z,44.31
2022-07-25T17:15:40.242Z,44.28
2022-07-25T17:18:08.365Z,44.39
2022-07-25T17:20:36.693Z,44.19
2022-07-25T17:23:05.148Z,44.59
2022-07-25T17:25:33.437Z,44.49
2022-07-25T17:28:02.720Z,44.44
2022-07-25T17:30:32.075Z,44.66
2022-07-25T17:33:00.059Z,45.31
2022-07-25T17:35:28.271Z,44.78
2022-07-25T17:37:56.215Z,45.31
2022-07-25T17:40:24.297Z,45.91
2022-07-25T17:42:52.308Z,45.34
2022-07-25T17:45:20.285Z,45.59
2022-07-25T17:47:49.581Z,45.91
2022-07-25T17:50:17.947Z,46.30
2022-07-25T17:52:46.195Z,46.75
2022-07-25T17:55:14.137Z,46.50
2022-07-25T17:57:43.527Z,47.20
2022-07-25T18:00:13.179Z,47.70
2022-07-25T18:02:41.487Z,47.44
2022-07-25T18:05:11.190Z,47.11
2022-07-25T18:07:41.590Z,47.72
2022-07-25T18:10:09.957Z,47.69
2022-07-25T18:12:38.180Z,47.98
2022-07-25T18:15:07.351Z,48.42
2022-07-25T18:17:35.590Z,48.42
2022-07-25T18:20:04.218Z,48.67
2022-07-25T18:22:33.759Z,48.82
2022-07-25T18:25:01.926Z,49.16
2022-07-25T18:27:29.871Z,49.51
2022-07-25T18:29:57.949Z,49.41
2022-07-25T18:32:25.857Z,49.37
2022-07-25T18:34:53.751Z,49.72
2022-07-25T18:37:21.705Z,49.82
2022-07-25T18:39:51.000Z,49.89
2022-07-25T18:42:18.979Z,50.24
2022-07-25T18:44:46.936Z,50.19
2022-07-25T18:47:15.359Z,50.22
2022-07-25T18:49:43.345Z,50.59
2022-07-25T18:52:11.346Z,50.70
2022-07-25T18:54:39.299Z,51.17
2022-07-25T18:57:08.653Z,51.24
2022-07-25T18:59:37.521Z,51.26
2022-07-25T19:02:05.829Z,51.51
2022-07-25T19:04:34.172Z,51.65
2022-07-25T19:07:02.169Z,51.83
2022-07-25T19:09:30.108Z,52.09
2022-07-25T19:11:58.037Z,52.44
2022-07-25T19:14:27.964Z,52.44
2022-07-25T19:16:57.515Z,52.57
2022-07-25T19:19:25.538Z,52.56
2022-07-25T19:21:53.511Z,52.33
2022-07-25T19:24:21.743Z,52.93
2022-07-25T19:26:50.911Z,52.81
2022-07-25T19:29:18.920Z,53.04
2022-07-25T19:31:48.304Z,53.86
2022-07-25T19:34:16.207Z,54.13
2022-07-25T19:36:45.971Z,54.23
2022-07-25T19:39:14.484Z,54.68
2022-07-25T19:41:46.617Z,53.87
2022-07-25T19:44:15.440Z,53.05
2022-07-25T19:46:43.477Z,53.46
2022-07-25T19:49:13.077Z,53.90
2022-07-25T19:51:41.460Z,54.40
2022-07-25T19:54:09.945Z,54.92
2022-07-25T19:56:38.259Z,55.21
2022-07-25T19:59:06.293Z,55.39
2022-07-25T20:01:36.031Z,55.59
2022-07-25T20:04:05.602Z,56.11
2022-07-25T20:06:35.772Z,56.34
2022-07-25T20:09:05.375Z,56.07
2022-07-25T20:11:33.466Z,56.57
2022-07-25T20:14:02.026Z,56.86
2022-07-25T20:16:29.991Z,57.61
2022-07-25T20:18:58.065Z,57.99
2022-07-25T20:21:25.978Z,58.28
2022-07-25T20:23:55.273Z,58.80
2022-07-25T20:26:23.204Z,58.95
2022-07-25T20:28:51.153Z,59.37
2022-07-25T20:31:22.185Z,59.05
2022-07-25T20:33:50.337Z,59.45
2022-07-25T20:36:18.261Z,60.29
2022-07-25T20:38:46.210Z,60.23
2022-07-25T20:41:17.803Z,60.38
2022-07-25T20:43:46.098Z,60.72
2022-07-25T20:46:14.084Z,61.12
2022-07-25T20:48:42.084Z,60.94
2022-07-25T20:51:12.512Z,61.48
2022-07-25T20:53:41.837Z,61.30
2022-07-25T20:56:10.178Z,61.25
2022-07-25T20:58:39.422Z,60.99
2022-07-25T21:01:07.390Z,61.10
2022-07-25T21:03:36.404Z,61.12
2022-07-25T21:06:04.422Z,61.71
2022-07-25T21:08:32.306Z,61.50
2022-07-25T21:11:00.426Z,61.47
2022-07-25T21:13:31.252Z,61.23
2022-07-25T21:16:02.444Z,61.79
2022-07-25T21:18:30.433Z,61.29
2022-07-25T21:20:59.411Z,61.51
2022-07-25T21:23:27.664Z,62.15
2022-07-25T21:25:55.540Z,61.77
2022-07-25T21:28:23.491Z,62.49
2022-07-25T21:30:53.915Z,62.35
2022-07-25T21:33:23.183Z,62.85
2022-07-25T21:35:53.697Z,62.70
2022-07-25T21:38:27.596Z,63.38
2022-07-25T21:40:57.489Z,63.30
2022-07-25T21:43:25.519Z,64.03
2022-07-25T21:45:53.545Z,64.34
2022-07-25T21:48:43.057Z,64.90
2022-07-25T21:51:19.380Z,65.95
2022-07-25T21:53:51.763Z,66.21
2022-07-25T21:56:20.674Z,66.91
2022-07-25T21:58:48.745Z,67.12
2022-07-25T22:01:16.750Z,67.39
2022-07-25T22:03:44.694Z,67.78
2022-07-25T22:06:14.085Z,68.47
2022-07-25T22:08:42.016Z,69.30
2022-07-25T22:11:20.875Z,69.46
2022-07-25T22:13:58.313Z,69.95
2022-07-25T22:16:26.555Z,70.48
2022-07-25T22:18:54.528Z,71.08
2022-07-25T22:21:23.858Z,71.58
2022-07-25T22:23:51.717Z,72.25
2022-07-25T22:26:20.250Z,72.93
2022-07-25T22:28:48.458Z,73.33
2022-07-25T22:31:16.798Z,74.02
2022-07-25T22:33:44.795Z,74.01
2022-07-25T22:36:12.757Z,75.39
2022-07-25T22:38:43.261Z,76.10
2022-07-25T22:41:11.698Z,75.96
2022-07-25T22:43:57.325Z,76.22
2022-07-25T22:46:26.535Z,76.20
2022-07-25T22:48:54.661Z,75.44
2022-07-25T22:51:22.703Z,75.60
2022-07-25T22:53:52.140Z,75.58
2022-07-25T22:56:20.383Z,75.47
2022-07-25T22:58:48.955Z,75.41
2022-07-25T23:01:17.538Z,75.14
2022-07-25T23:03:45.701Z,75.13
2022-07-25T23:06:14.149Z,75.22
2022-07-25T23:08:42.086Z,75.73
2022-07-25T23:11:11.375Z,76.55
2022-07-25T23:13:39.313Z,77.20
2022-07-25T23:16:10.527Z,77.28
2022-07-25T23:18:38.870Z,77.47
2022-07-25T23:21:07.376Z,76.87
2022-07-25T23:23:35.371Z,77.32
2022-07-25T23:26:03.749Z,77.03
2022-07-25T23:28:33.015Z,77.40
2022-07-25T23:31:01.578Z,78.40
2022-07-25T23:33:30.222Z,79.08
2022-07-25T23:35:58.290Z,79.46
2022-07-25T23:38:26.408Z,79.96
2022-07-25T23:40:54.883Z,80.30
2022-07-25T23:43:56.285Z,80.81
2022-07-25T23:46:12.024Z,81.69
2022-07-25T23:48:40.202Z,81.94
2022-07-25T23:51:08.580Z,82.67
2022-07-25T23:53:37.136Z,82.79
2022-07-25T23:56:05.521Z,83.30
2022-07-25T23:58:33.407Z,83.72
